Claypool, Arizona
Current Conditions -  °F | °C
As of 1:47 PM on Monday 24 Nov 2014 (Local Time) from KIWA Reporting Station
Few Clouds Few Clouds  
Wind Chill: 64°   Ceiling: Unl
Heat Index: 64°   Visibility: 45mi
Dew Point:   Wind: 7mph
Humidity: 11%   Direction: 320°NW
Pressure: 30.2"   Gusts: NA
Location:  33.41°N, 110.84°W
Report Text: KIWA 242047Z 32006KT 45SM FEW250 18/M13 A3020
Loading
Personal Weather Stations






























Interactive Weather Map New forecast layout! Learn more

10-Day Weather Forecast

Advertisements
Track Severe Weather on mobile